• Join FlightAware (Why Join?)
  • Login
  • US Flag 
09:15AM EDT


 

Airport Tracker/Info


-or-


 

Live Flight TrackerFlight Track Log ✈ UPS1057 ✈ 01-Nov-2013 ✈ KMHT - KSDF

Flight Track Log - Related Links

Times and Time Zones

All times are in EDT time to prevent confusion due to time zone crossing. See the UPS1057 flight status page for this flight to view local times or setup timezone preferences in your user account.

Time Position Orientation Groundspeed Altitude Reporting Facility
EDT Latitude Longitude Course Direction KTS MPH feet Rate Location/Type
11:12PM 42.9210 -71.4270 154° Southeast 160 184 1,200  Level FlightAware
11:13PM 42.9086 -71.4232 167° South 163 188 1,900 2,400 Climbing FlightAware ADS-B
11:13PM 42.9001 -71.4264 196° South 178 205 2,200 2,160 Climbing FlightAware ADS-B
11:13PM 42.8852 -71.4350 203° Southwest 187 215 3,000 2,220 Climbing FlightAware ADS-B
11:13PM 42.8678 -71.4454 204° Southwest 206 237 3,700 2,160 Climbing FlightAware ADS-B
11:14PM 42.8611 -71.4554 228° Southwest 213 245 4,100 2,400 Climbing FlightAware ADS-B
11:14PM 42.8579 -71.4682 251° West 217 250 4,500 2,700 Climbing FlightAware ADS-B
11:14PM 42.8584 -71.4821 273° West 224 258 5,000 3,000 Climbing FlightAware ADS-B
11:14PM 42.8621 -71.4951 291° West 231 266 5,500 3,300 Climbing FlightAware ADS-B
11:14PM 42.8669 -71.5051 303° West 240 276 6,000 3,540 Climbing FlightAware ADS-B
11:14PM 42.8755 -71.5204 307° West 245 282 6,800 3,480 Climbing FlightAware ADS-B (KBOS)
11:15PM 42.8826 -71.5325 309° West 246 283 7,400 3,960 Climbing FlightAware ADS-B (KBOS)
11:15PM 42.8886 -71.5426 309° West 249 287 8,000 3,180 Climbing FlightAware ADS-B (KBOS)
11:15PM 42.9029 -71.5660 310° West 256 295 8,800 2,700 Climbing FlightAware ADS-B
11:15PM 42.9208 -71.5939 311° West 273 314 9,800 2,040 Climbing FlightAware ADS-B
11:16PM 42.9383 -71.6204 312° West 275 316 10,300 1,080 Climbing FlightAware ADS-B (KBOS)
11:16PM 42.9466 -71.6325 313° West 274 315 10,400 420 Climbing FlightAware ADS-B (KBOS)
11:16PM 42.9466 -71.6325 313° West 276 318 10,400 1,620 Level FlightAware ADS-B (KBOS)
11:16PM 42.9622 -71.6600 308° West 277 319 10,900 1,920 Climbing FlightAware ADS-B
11:17PM 42.9723 -71.6935 292° West 297 342 11,500 1,800 Climbing FlightAware ADS-B
11:17PM 42.9746 -71.7116 280° West 305 351 11,800 2,220 Climbing FlightAware ADS-B
11:17PM 42.9750 -71.7354 271° West 318 366 12,500 3,120 Climbing FlightAware ADS-B (KBOS)
11:17PM 42.9753 -71.7561 271° West 346 398 14,300 3,660 Climbing FlightAware ADS-B
11:18PM 42.9779 -71.8832 272° West 360 414 16,400 3,900 Climbing FlightAware ADS-B
11:18PM 42.9780 -71.8902 271° West 360 414 16,800 4,320 Climbing FlightAware ADS-B
11:19PM 42.9792 -71.9649 271° West 361 415 19,000 4,380 Climbing FlightAware ADS-B
11:19PM 42.9806 -72.0427 271° West 358 412 21,500 4,080 Climbing FlightAware ADS-B
11:19PM 42.9810 -72.0792 271° West 362 417 22,400 3,060 Climbing FlightAware ADS-B
11:20PM 42.9818 -72.1316 271° West 369 425 23,500 3,000 Climbing FlightAware ADS-B
11:20PM 42.9821 -72.1525 271° West 371 427 24,000 3,120 Climbing FlightAware ADS-B
11:20PM 42.9824 -72.1704 271° West 374 430 24,400 2,760 Climbing FlightAware ADS-B
11:21PM 42.9833 -72.2289 271° West 374 430 25,500 2,880 Climbing FlightAware ADS-B
11:21PM 42.9836 -72.2507 271° West 381 438 26,000 2,760 Climbing FlightAware ADS-B
11:21PM 42.9837 -72.2600 271° West 383 441 26,100 2,520 Climbing FlightAware ADS-B
11:21PM 42.9842 -72.2947 271° West 385 443 26,800 3,000 Climbing FlightAware ADS-B
11:21PM 42.9847 -72.3236 271° West 385 443 27,500 3,660 Climbing FlightAware ADS-B (KSNC)
11:22PM 42.9861 -72.4125 271° West 373 429 29,800 3,600 Climbing FlightAware ADS-B
11:22PM 42.9862 -72.4248 271° West 376 433 30,000 2,880 Climbing FlightAware ADS-B
11:22PM 42.9871 -72.4983 271° West 369 425 31,600 3,000 Climbing FlightAware ADS-B
11:23PM 42.9877 -72.5841 271° West 361 415 33,500 1,920 Climbing FlightAware ADS-B
11:24PM 42.9810 -72.6600 263° West 357 411 34,000 360 Climbing FlightAware
11:24PM 42.9670 -72.7182 252° West 371 427 34,000  Level FlightAware ADS-B (KSNC)
11:25PM 42.9380 -72.8090 246° West 384 442 34,000  Level FlightAware
11:25PM 42.9458 -72.7836 67° East 390 449 34,000  Level FlightAware ADS-B
11:26PM 42.9458 -72.7836 67° East 391 450 34,000  Level FlightAware ADS-B
11:27PM 42.8210 -73.1570 246° West 392 451 34,000  Level FlightAware
11:28PM 42.7970 -73.2270 245° Southwest 391 450 34,000  Level FlightAware
11:28PM 42.7901 -73.2478 246° West 391 450 34,000  Level FlightAware ADS-B (KSNC)
11:29PM 42.7656 -73.3206 245° Southwest 391 450 34,000  Level FlightAware ADS-B
11:29PM 42.7240 -73.4440 245° Southwest 390 449 34,000  Level FlightAware
11:30PM 42.7193 -73.4562 243° Southwest 390 449 34,000  Level FlightAware ADS-B (KSNC)
11:30PM 42.6908 -73.5398 245° Southwest 389 448 34,000  Level FlightAware ADS-B (KSNC)
11:31PM 42.6540 -73.6480 245° Southwest 390 449 34,000  Level FlightAware
11:32PM 42.6310 -73.7140 245° Southwest 390 449 34,000  Level FlightAware
11:32PM 42.5910 -73.8300 245° Southwest 387 445 34,000  Level FlightAware
11:33PM 42.5490 -73.9510 245° Southwest 386 444 34,000  Level FlightAware
11:34PM 42.5132 -74.0540 245° Southwest 386 444 34,000  Level FlightAware ADS-B (KSNC)
11:35PM 42.4650 -74.1920 245° Southwest 386 444 34,000  Level FlightAware
11:36PM 42.4240 -74.3090 245° Southwest 386 444 34,000  Level FlightAware
11:37PM 42.3990 -74.3790 244° Southwest 386 444 34,000  Level FlightAware
11:37PM 42.3650 -74.4750 244° Southwest 387 445 34,000  Level FlightAware
11:38PM 42.3410 -74.5450 245° Southwest 387 445 34,000  Level FlightAware
11:39PM 42.3010 -74.6570 244° Southwest 388 447 34,000  Level FlightAware
11:40PM 42.2610 -74.7690 244° Southwest 390 449 34,000  Level FlightAware
11:40PM 42.2190 -74.8850 244° Southwest 389 448 34,000  Level FlightAware
11:41PM 42.1930 -74.9580 244° Southwest 390 449 34,000  Level FlightAware
11:42PM 42.1640 -75.0380 244° Southwest 390 449 34,000  Level FlightAware
11:42PM 42.1250 -75.1460 244° Southwest 390 449 34,000  Level FlightAware
11:43PM 42.0810 -75.2680 244° Southwest 390 449 34,000  Level FlightAware
11:44PM 42.0692 -75.2994 243° Southwest 388 447 34,000  Level FlightAware ADS-B (KWWD)
11:44PM 42.0461 -75.3642 244° Southwest 387 445 34,000  Level FlightAware ADS-B (KWWD)
11:44PM 42.0368 -75.3959 248° West 389 448 34,000  Level FlightAware ADS-B (KWWD)
11:45PM 42.0160 -75.4790 251° West 392 451 34,000  Level FlightAware ADS-B (KWWD)
11:45PM 41.9988 -75.5537 253° West 392 451 34,000  Level FlightAware ADS-B (KWWD)
11:46PM 41.9830 -75.6237 253° West 392 451 34,000  Level FlightAware ADS-B (KWWD)
11:46PM 41.9677 -75.6921 253° West 391 450 34,000  Level FlightAware ADS-B (KWWD)
11:47PM 41.9530 -75.7590 254° West 391 450 34,000  Level FlightAware
11:48PM 41.9302 -75.8580 253° West 393 452 34,000  Level FlightAware ADS-B (KWWD)
11:48PM 41.9090 -75.9502 253° West 393 452 34,000  Level FlightAware ADS-B (KWWD)
11:49PM 41.8884 -76.0402 253° West 394 453 34,000  Level FlightAware ADS-B (KWWD)
11:49PM 41.8716 -76.1122 253° West 393 452 34,000  Level FlightAware ADS-B (KWWD)
11:50PM 41.8555 -76.1820 253° West 393 452 34,000  Level FlightAware ADS-B (KWWD)
11:51PM 41.8351 -76.2698 253° West 393 452 34,000  Level FlightAware ADS-B (KWWD)
11:51PM 41.8185 -76.3382 252° West 393 452 34,000  Level FlightAware ADS-B (KWWD)
11:52PM 41.8016 -76.4135 253° West 392 451 34,000  Level FlightAware ADS-B (KWWD)
11:52PM 41.7856 -76.4818 253° West 392 451 34,000  Level FlightAware ADS-B (KWWD)
11:53PM 41.7692 -76.5514 253° West 392 451 34,000  Level FlightAware ADS-B (KWWD)
11:53PM 41.7526 -76.6217 252° West 390 449 34,000  Level FlightAware ADS-B (KWWD)
11:54PM 41.7357 -76.6927 252° West 392 451 34,000  Level FlightAware ADS-B (KWWD)
11:54PM 41.7146 -76.7819 252° West 391 450 34,000  Level FlightAware ADS-B (KWWD)
11:55PM 41.6980 -76.8500 252° West 392 451 34,000  Level FlightAware
11:55PM 41.6828 -76.9148 253° West 391 450 34,000  Level FlightAware ADS-B (KWWD)
11:56PM 41.6642 -76.9926 252° West 391 450 34,000  Level FlightAware ADS-B (KWWD)
11:57PM 41.6230 -77.1635 252° West 390 449 34,000  Level FlightAware ADS-B (KWWD)
11:58PM 41.5940 -77.2850 252° West 391 450 34,000  Level FlightAware
11:58PM 41.5770 -77.3540 252° West 390 449 34,000  Level FlightAware
11:59PM 41.5440 -77.4860 252° West 391 450 34,000  Level FlightAware
12:00AM 41.5270 -77.5550 252° West 391 450 34,000  Level FlightAware
12:01AM 41.5030 -77.6550 252° West 391 450 34,000  Level FlightAware
12:02AM 41.4710 -77.7840 252° West 391 450 34,000  Level FlightAware
12:02AM 41.4450 -77.8880 252° West 391 450 34,000  Level FlightAware
12:03AM 41.4130 -78.0160 252° West 393 452 34,000  Level FlightAware
12:04AM 41.3835 -78.1317 251° West 390 449 34,000  Level FlightAware ADS-B (KWWD)
12:05AM 41.3644 -78.2075 251° West 389 448 34,000  Level FlightAware ADS-B (KWWD)
12:05AM 41.3468 -78.2772 251° West 390 449 34,000  Level FlightAware ADS-B (KWWD)
12:06AM 41.3290 -78.3471 251° West 391 450 34,000  Level FlightAware ADS-B (KWWD)
12:06AM 41.3076 -78.4311 251° West 393 452 34,000  Level FlightAware ADS-B (KWWD)
12:07AM 41.2690 -78.5640 249° West 392 451 34,000  Level FlightAware
12:08AM 41.2420 -78.6440 246° West 393 452 34,000  Level FlightAware
12:08AM 41.2160 -78.7220 246° West 393 452 34,000  Level FlightAware
12:09AM 41.1780 -78.8360 246° West 394 453 34,000  Level FlightAware
12:10AM 41.1480 -78.9240 246° West 394 453 34,000  Level FlightAware
12:11AM 41.1090 -79.0420 246° West 395 455 34,000  Level FlightAware
12:12AM 41.0750 -79.1440 246° West 396 456 34,000  Level FlightAware
12:12AM 41.0520 -79.2110 246° West 397 457 34,000  Level FlightAware
12:13AM 41.0120 -79.3320 246° West 399 459 34,000  Level FlightAware
12:14AM 40.9790 -79.4280 246° West 400 460 34,000  Level FlightAware
12:15AM 40.9370 -79.5520 246° West 399 459 34,000  Level FlightAware
12:15AM 40.9150 -79.6160 246° West 400 460 34,000  Level FlightAware
12:16AM 40.8890 -79.6920 246° West 400 460 34,000  Level FlightAware
12:17AM 40.8430 -79.8260 246° West 401 461 34,000  Level FlightAware
12:18AM 40.8030 -79.9420 246° West 401 461 34,000  Level FlightAware
12:18AM 40.7660 -80.0500 246° West 402 463 34,000  Level FlightAware
12:19AM 40.7440 -80.1120 245° Southwest 402 463 34,000  Level FlightAware
12:19AM 40.7190 -80.1850 246° West 402 463 34,000  Level FlightAware
12:20AM 40.7119 -80.2042 244° Southwest 403 464 34,000  Level FlightAware ADS-B
12:20AM 40.6816 -80.2911 245° Southwest 402 463 34,000  Level FlightAware ADS-B
12:21AM 40.6422 -80.4034 245° Southwest 403 464 34,000  Level FlightAware ADS-B
12:22AM 40.6210 -80.4638 245° Southwest 403 464 34,000  Level FlightAware ADS-B
12:22AM 40.5939 -80.5411 245° Southwest 404 465 34,000  Level FlightAware ADS-B
12:23AM 40.5706 -80.6069 245° Southwest 405 466 34,000  Level FlightAware ADS-B
12:24AM 40.5230 -80.7430 245° Southwest 403 464 34,000  Level FlightAware
12:25AM 40.4760 -80.8720 244° Southwest 403 464 34,000  Level FlightAware
12:25AM 40.4510 -80.9420 245° Southwest 404 465 34,000  Level FlightAware
12:26AM 40.4050 -81.0700 245° Southwest 404 465 34,000  Level FlightAware
12:27AM 40.3740 -81.1580 245° Southwest 403 464 34,000  Level FlightAware
12:27AM 40.3480 -81.2290 244° Southwest 403 464 34,000  Level FlightAware
12:28AM 40.3090 -81.3360 244° Southwest 403 464 34,000  Level FlightAware
12:29AM 40.2710 -81.4410 245° Southwest 403 464 34,000  Level FlightAware
12:29AM 40.2440 -81.5150 244° Southwest 403 464 34,000  Level FlightAware
12:30AM 40.2170 -81.5890 244° Southwest 403 464 34,000  Level FlightAware
12:31AM 40.1830 -81.6820 244° Southwest 402 463 34,000  Level FlightAware
12:32AM 40.1350 -81.8140 245° Southwest 403 464 34,000  Level FlightAware
12:33AM 40.0940 -81.9240 244° Southwest 403 464 34,000  Level FlightAware
12:33AM 40.0650 -82.0030 244° Southwest 404 465 34,000  Level FlightAware
12:34AM 40.0290 -82.0990 244° Southwest 404 465 34,000  Level FlightAware
12:35AM 39.9860 -82.2140 244° Southwest 405 466 34,000  Level FlightAware
12:36AM 39.9340 -82.3530 244° Southwest 405 466 34,000  Level FlightAware
12:37AM 39.8880 -82.4760 244° Southwest 407 468 34,000  Level FlightAware
12:38AM 39.8380 -82.6080 244° Southwest 409 471 34,000  Level FlightAware
12:39AM 39.8010 -82.7050 244° Southwest 411 473 34,000  Level FlightAware
12:39AM 39.7720 -82.7830 244° Southwest 412 474 34,000  Level FlightAware
12:40AM 39.7230 -82.9110 244° Southwest 414 476 34,000  Level FlightAware
12:41AM 39.6820 -83.0170 243° Southwest 415 478 34,000  Level FlightAware
12:42AM 39.6320 -83.1480 244° Southwest 415 478 34,000  Level FlightAware
12:42AM 39.6060 -83.2140 243° Southwest 417 480 34,000 -120 Level FlightAware
12:43AM 39.5790 -83.2850 244° Southwest 417 480 33,900 -720 Descending FlightAware
12:43AM 39.5540 -83.3480 243° Southwest 417 480 33,300 -1,620 Descending FlightAware
12:44AM 39.5230 -83.4280 243° Southwest 417 480 32,200 -1,920 Descending FlightAware
12:45AM 39.4780 -83.5440 243° Southwest 415 478 30,500 -1,440 Descending FlightAware
12:45AM 39.4440 -83.6310 243° Southwest 412 474 30,000 -360 Descending FlightAware
12:46AM 39.4020 -83.7370 243° Southwest 417 480 30,000  Level FlightAware
12:47AM 39.3570 -83.8430 241° Southwest 418 481 30,000  Level FlightAware
12:48AM 39.3060 -83.9430 237° Southwest 419 482 30,000 -60 Level FlightAware
12:49AM 39.2470 -84.0520 235° Southwest 422 486 29,900 -540 Descending FlightAware
12:50AM 39.1940 -84.1510 235° Southwest 414 476 29,100 -1,140 Descending FlightAware
12:50AM 39.1600 -84.2150 236° Southwest 412 474 28,400 -1,500 Descending FlightAware
12:51AM 39.1100 -84.3080 235° Southwest 418 481 27,200 -1,800 Descending FlightAware
12:52AM 39.0620 -84.3980 236° Southwest 401 461 25,700 -2,400 Descending FlightAware
12:52AM 39.0150 -84.4850 235° Southwest 400 460 23,700 -2,940 Descending FlightAware
12:53AM 38.9580 -84.5900 235° Southwest 383 441 20,800 -3,420 Descending FlightAware
12:54AM 38.9160 -84.6660 235° Southwest 380 437 18,200 -3,780 Descending FlightAware
12:55AM 38.8610 -84.7680 235° Southwest 378 435 14,800 -3,360 Descending FlightAware
12:55AM 38.8270 -84.8310 235° Southwest 366 421 13,200 -1,800 Descending FlightAware
12:56AM 38.7720 -84.9320 235° Southwest 365 420 12,100 -840 Descending FlightAware
12:57AM 38.7420 -84.9690 224° Southwest 367 422 12,100  Level FlightAware
12:58AM 38.6670 -85.0410 217° Southwest 367 422 12,100  Level FlightAware
12:58AM 38.6290 -85.0780 217° Southwest 367 422 12,100 -120 Level FlightAware
12:59AM 38.5860 -85.1190 217° Southwest 343 395 12,000 -240 Descending FlightAware
12:59AM 38.5540 -85.1490 216° Southwest 313 360 11,900 -420 Descending FlightAware
01:00AM 38.5000 -85.2010 217° Southwest 268 308 11,500 -780 Descending FlightAware
01:01AM 38.4550 -85.2440 217° Southwest 254 292 10,700 -1,320 Descending FlightAware
01:02AM 38.4090 -85.2880 217° Southwest 256 295 9,400 -1,560 Descending FlightAware
01:02AM 38.3810 -85.3140 216° Southwest 255 293 8,700 -1,620 Descending FlightAware
01:03AM 38.3490 -85.3450 217° Southwest 255 293 7,800 -1,500 Descending FlightAware
01:03AM 38.3250 -85.3680 217° Southwest 252 290 7,200 -1,320 Descending FlightAware
01:04AM 38.2980 -85.3940 217° Southwest 247 284 6,600 -1,320 Descending FlightAware
01:04AM 38.2700 -85.4200 216° Southwest 243 280 5,900 -1,500 Descending FlightAware
01:05AM 38.2440 -85.4440 216° Southwest 245 282 5,200 -840 Descending FlightAware
01:05AM 38.2140 -85.4730 217° Southwest 251 289 5,100 -120 Descending FlightAware
01:06AM 38.1880 -85.4970 216° Southwest 252 290 5,100  Level FlightAware
01:06AM 38.1630 -85.5210 217° Southwest 249 287 5,100 -540 Level FlightAware
01:07AM 38.1330 -85.5490 216° Southwest 246 283 4,600 -1,200 Descending FlightAware
01:07AM 38.1170 -85.5540 194° South 263 303 4,200 -540 Descending FlightAware
01:08AM 38.0610 -85.5450 173° South 251 289 4,100 -120 Descending FlightAware
01:08AM 38.0290 -85.5390 172° South 248 285 4,100  Level FlightAware
01:08AM 38.0130 -85.5360 172° South 241 277 4,100  Level FlightAware
01:09AM 37.9860 -85.5310 172° South 214 246 4,100 -480 Level FlightAware
01:09AM 37.9550 -85.5250 171° South 205 236 3,700 -1,020 Descending FlightAware
01:10AM 37.9330 -85.5210 172° South 207 238 3,200 -660 Descending FlightAware
01:10AM 37.9090 -85.5230 184° South 202 232 3,100 -120 Descending FlightAware
01:10AM 37.9000 -85.5430 240° Southwest 181 208 3,100  Level FlightAware
01:11AM 37.8970 -85.5810 264° West 178 205 3,100  Level FlightAware
01:12AM 37.9220 -85.6180 311° West 174 200 3,100  Level FlightAware
01:12AM 37.9360 -85.6330 320° Northwest 175 201 3,100  Level FlightAware
01:13AM 37.9550 -85.6460 332° Northwest 178 205 3,100  Level FlightAware
01:13AM 37.9670 -85.6540 332° Northwest 175 201 3,100  Level FlightAware
01:13AM 37.9890 -85.6640 340° North 181 208 3,100  Level FlightAware
01:14AM 38.0100 -85.6710 345° North 178 205 3,100  Level FlightAware
01:14AM 38.0370 -85.6800 345° North 166 191 3,100 -300 Level FlightAware
01:15AM 38.0610 -85.6890 344° North 148 170 2,800 -660 Descending FlightAware
01:15AM 38.0740 -85.6930 346° North 147 169 2,500 -900 Descending FlightAware
01:16AM 38.1000 -85.7010 346° North 126 145 2,000 -900 Descending FlightAware
01:16AM 38.1110 -85.7050 344° North 118 136 1,700 -780 Descending FlightAware
01:17AM 38.1320 -85.7120 345° North 119 137 1,300 -660 Descending FlightAware
01:17AM 38.1470 -85.7180 343° North 122 140 1,000 -600 Descending FlightAware
01:18AM 38.1600 -85.7220 346° North 128 147 800 -540 Descending FlightAware
01:18AM 38.1730 -85.7260 346° North 98 113 -2,040 Descending FlightAware